Time;durP1;ratioP1;P1;durP2;ratioP2;P2;SDS_P1;SDS_P2;PMS_P1;PMS_P2;Temp;Humidity;BMP_temperature;BMP_pressure;BME280_temperature;BME280_humidity;BME280_pressure;Samples;Min_cycle;Max_cycle;Signal;HPM_P1;HPM_P2
2022/11/18 00:01:23;;;;;;;34.08;16.00;;;2.60;99.90;;;;;;5051365;28;20079;-73
2022/11/18 00:03:50;;;;;;;33.85;15.57;;;2.60;99.90;;;;;;5036831;28;20055;-73
2022/11/18 00:06:18;;;;;;;32.92;15.73;;;2.60;99.90;;;;;;5019115;28;20018;-74
2022/11/18 00:08:44;;;;;;;31.65;15.98;;;2.60;99.90;;;;;;5035732;28;20447;-73
2022/11/18 00:14:17;;;;;;;31.77;14.98;;;2.60;99.90;;;;;;5035239;28;20025;-75
2022/11/18 00:16:48;;;;;;;29.00;14.35;;;2.60;99.90;;;;;;5033614;28;20029;-75
2022/11/18 00:19:18;;;;;;;33.47;15.93;;;2.60;99.90;;;;;;5036789;28;20049;-72
2022/11/18 00:21:45;;;;;;;32.83;15.93;;;2.60;99.90;;;;;;5018399;28;20036;-75
2022/11/18 00:24:11;;;;;;;30.88;14.65;;;2.60;99.90;;;;;;5029830;28;20037;-74
2022/11/18 00:26:38;;;;;;;31.58;15.40;;;2.50;99.90;;;;;;5016916;28;20034;-75
2022/11/18 00:29:04;;;;;;;34.13;16.10;;;2.60;99.90;;;;;;5033079;28;20037;-74
2022/11/18 00:31:30;;;;;;;32.05;15.88;;;2.60;99.90;;;;;;5036417;28;20032;-74
2022/11/18 00:33:58;;;;;;;35.15;15.95;;;2.60;99.90;;;;;;5033108;28;20111;-73
2022/11/18 00:36:24;;;;;;;34.05;16.52;;;2.50;99.90;;;;;;5018055;28;20021;-73
2022/11/18 00:38:50;;;;;;;34.25;16.50;;;2.60;99.90;;;;;;5019398;28;20587;-73
2022/11/18 00:41:16;;;;;;;33.65;16.25;;;2.60;99.90;;;;;;5019584;28;20036;-74
2022/11/18 00:43:41;;;;;;;32.25;16.77;;;2.60;99.90;;;;;;5018124;28;20504;-73
2022/11/18 00:46:12;;;;;;;31.08;15.90;;;2.60;99.90;;;;;;5029152;28;20860;-73
2022/11/18 00:48:38;;;;;;;33.42;16.58;;;2.60;99.90;;;;;;5035092;28;20075;-73
2022/11/18 00:51:07;;;;;;;32.88;16.40;;;2.60;99.90;;;;;;5049748;28;20036;-73
2022/11/18 00:53:33;;;;;;;34.33;16.30;;;2.60;99.90;;;;;;5051100;28;20048;-74
2022/11/18 00:56:00;;;;;;;35.30;16.52;;;2.50;99.90;;;;;;5049076;28;20022;-73
2022/11/18 00:58:25;;;;;;;35.30;16.25;;;2.50;99.90;;;;;;5009720;28;20033;-74
2022/11/18 01:00:52;;;;;;;34.13;15.45;;;2.50;99.90;;;;;;5033899;28;20575;-74
2022/11/18 01:03:18;;;;;;;32.47;16.92;;;2.50;99.90;;;;;;5017859;28;20746;-74
2022/11/18 01:05:44;;;;;;;33.80;15.88;;;2.50;99.90;;;;;;5032969;28;20033;-74
2022/11/18 01:08:12;;;;;;;34.67;16.67;;;2.50;99.90;;;;;;5032280;28;20469;-74
2022/11/18 01:10:39;;;;;;;35.17;16.60;;;2.50;99.90;;;;;;5017890;28;20496;-74
2022/11/18 01:13:18;;;;;;;40.45;18.42;;;2.40;99.90;;;;;;5000511;28;20026;-74
2022/11/18 01:15:46;;;;;;;36.13;17.95;;;2.50;99.90;;;;;;5034969;28;20104;-74
2022/11/18 01:18:12;;;;;;;37.53;17.13;;;2.40;99.90;;;;;;5049140;28;20119;-74
2022/11/18 01:20:38;;;;;;;39.88;18.65;;;2.50;99.90;;;;;;5031816;28;20111;-74
2022/11/18 01:23:04;;;;;;;38.25;17.48;;;2.40;99.90;;;;;;5015784;28;20513;-73
2022/11/18 01:25:30;;;;;;;42.42;17.33;;;2.40;99.90;;;;;;5015408;28;20594;-73
2022/11/18 01:27:56;;;;;;;39.53;17.95;;;2.40;99.90;;;;;;5052509;28;20037;-73
2022/11/18 01:30:22;;;;;;;39.58;17.42;;;2.30;99.90;;;;;;5018042;28;20051;-73
2022/11/18 01:32:49;;;;;;;37.45;16.85;;;2.30;99.90;;;;;;5039090;28;20400;-73
2022/11/18 01:35:15;;;;;;;36.83;16.67;;;2.30;99.90;;;;;;5016123;28;20401;-73
2022/11/18 01:37:41;;;;;;;39.95;18.67;;;2.30;99.90;;;;;;5020456;28;20037;-72
2022/11/18 01:40:08;;;;;;;45.67;19.67;;;2.30;99.90;;;;;;5020150;28;20033;-73
2022/11/18 01:42:35;;;;;;;37.15;17.52;;;2.30;99.90;;;;;;5011348;28;20035;-74
2022/11/18 01:45:19;;;;;;;38.65;18.10;;;2.20;99.90;;;;;;5037018;28;20033;-73
2022/11/18 01:48:14;;;;;;;36.47;17.17;;;2.30;99.90;;;;;;5035020;28;20032;-73
2022/11/18 01:50:44;;;;;;;36.67;17.25;;;2.20;99.90;;;;;;5029659;28;20069;-73
2022/11/18 01:53:18;;;;;;;37.95;18.15;;;2.20;99.90;;;;;;5043969;28;20044;-73
2022/11/18 01:55:48;;;;;;;46.58;20.73;;;2.20;99.90;;;;;;5049909;28;20394;-74
2022/11/18 01:58:24;;;;;;;39.38;17.83;;;2.20;99.90;;;;;;5016361;28;20382;-73
2022/11/18 02:00:50;;;;;;;40.55;18.90;;;2.20;99.90;;;;;;5036304;28;20031;-73
2022/11/18 02:03:16;;;;;;;42.83;20.95;;;2.10;99.90;;;;;;5035250;28;20033;-73
2022/11/18 02:05:45;;;;;;;43.25;20.08;;;2.10;99.90;;;;;;5012834;28;20505;-73
2022/11/18 02:08:11;;;;;;;44.65;19.50;;;2.10;99.90;;;;;;5033046;28;20079;-73
2022/11/18 02:10:37;;;;;;;42.88;21.02;;;2.10;99.90;;;;;;5050262;28;20164;-73
2022/11/18 02:13:03;;;;;;;41.97;20.35;;;2.10;99.90;;;;;;5015169;28;20100;-74
2022/11/18 02:15:56;;;;;;;43.95;20.40;;;2.00;99.90;;;;;;5029461;28;20040;-73
2022/11/18 02:18:22;;;;;;;49.95;21.15;;;2.10;99.90;;;;;;5034398;28;20079;-73
2022/11/18 02:20:54;;;;;;;49.47;21.42;;;2.00;99.90;;;;;;5049010;28;20033;-73
2022/11/18 02:24:00;;;;;;;47.17;21.65;;;2.00;99.90;;;;;;5048489;28;20884;-73
2022/11/18 02:26:40;;;;;;;46.92;21.60;;;2.00;99.90;;;;;;5033600;28;20055;-74
2022/11/18 02:29:24;;;;;;;48.50;22.17;;;2.10;99.90;;;;;;4996473;28;20581;-73
2022/11/18 02:31:56;;;;;;;47.65;21.85;;;2.10;99.90;;;;;;5046067;28;20024;-73
2022/11/18 02:34:50;;;;;;;49.03;21.65;;;2.00;99.90;;;;;;5046889;28;20029;-74
2022/11/18 02:37:38;;;;;;;46.00;21.10;;;2.00;99.90;;;;;;5034700;28;20728;-74
2022/11/18 02:40:13;;;;;;;50.15;22.80;;;2.00;99.90;;;;;;5010035;28;20130;-73
2022/11/18 02:42:41;;;;;;;48.63;22.13;;;2.00;99.90;;;;;;5015261;28;20100;-73
2022/11/18 02:45:11;;;;;;;52.50;22.58;;;2.00;99.90;;;;;;5034364;28;20033;-73
2022/11/18 02:47:39;;;;;;;53.33;23.58;;;2.00;99.90;;;;;;5037932;28;20025;-74
2022/11/18 02:50:10;;;;;;;48.50;22.88;;;2.00;99.90;;;;;;5016739;28;20496;-73
2022/11/18 02:52:38;;;;;;;51.13;23.02;;;2.10;99.90;;;;;;5046662;28;20106;-74
2022/11/18 02:55:07;;;;;;;49.38;23.17;;;2.10;99.90;;;;;;5033211;28;20075;-73
2022/11/18 02:57:35;;;;;;;51.95;23.70;;;2.10;99.90;;;;;;5015955;28;20408;-73
2022/11/18 03:00:01;;;;;;;49.75;23.63;;;2.10;99.90;;;;;;5039729;28;20551;-73
2022/11/18 03:02:26;;;;;;;51.35;23.33;;;2.00;99.90;;;;;;5029974;28;20104;-74
2022/11/18 03:04:56;;;;;;;49.17;22.88;;;2.00;99.90;;;;;;5049552;28;20061;-73
2022/11/18 03:07:30;;;;;;;43.67;22.65;;;2.00;99.90;;;;;;5035023;28;20496;-73
2022/11/18 03:09:59;;;;;;;47.35;22.60;;;2.00;99.90;;;;;;5033093;28;20034;-73
2022/11/18 03:12:54;;;;;;;48.15;22.90;;;2.10;99.90;;;;;;5001652;28;20077;-74
2022/11/18 03:15:36;;;;;;;43.15;21.00;;;2.00;99.90;;;;;;5043871;28;20028;-74
2022/11/18 03:18:19;;;;;;;44.38;21.58;;;2.00;99.90;;;;;;5016822;28;20030;-74
2022/11/18 03:20:53;;;;;;;43.42;21.40;;;2.00;99.90;;;;;;5025614;28;20127;-73
2022/11/18 03:23:29;;;;;;;50.10;22.90;;;2.00;99.90;;;;;;5028283;28;20037;-74
2022/11/18 03:26:08;;;;;;;42.70;20.60;;;2.00;99.90;;;;;;5035229;28;20029;-74
2022/11/18 03:28:46;;;;;;;48.30;22.30;;;2.00;99.90;;;;;;5052585;28;20120;-75
2022/11/18 03:31:29;;;;;;;48.45;23.58;;;2.00;99.90;;;;;;5048194;28;20025;-73
2022/11/18 03:34:18;;;;;;;47.75;23.38;;;1.90;99.90;;;;;;5038126;28;20539;-73
2022/11/18 03:36:51;;;;;;;45.47;22.10;;;1.90;99.90;;;;;;5015454;28;20162;-73
2022/11/18 03:39:19;;;;;;;45.63;21.98;;;1.90;99.90;;;;;;5038298;28;20140;-73
2022/11/18 03:41:52;;;;;;;45.47;22.17;;;2.00;99.90;;;;;;5018376;28;20025;-73
2022/11/18 03:44:22;;;;;;;46.97;23.13;;;2.00;99.90;;;;;;5035269;28;20025;-73
2022/11/18 03:46:54;;;;;;;41.08;20.67;;;2.00;99.90;;;;;;5048508;28;20025;-74
2022/11/18 03:49:29;;;;;;;43.45;21.73;;;2.00;99.90;;;;;;5033006;28;20076;-75
2022/11/18 03:52:01;;;;;;;42.25;21.27;;;1.90;99.90;;;;;;5018000;28;20033;-74
2022/11/18 03:54:30;;;;;;;44.33;20.38;;;1.90;99.90;;;;;;5039313;28;20021;-73
2022/11/18 03:57:10;;;;;;;43.33;20.80;;;2.00;99.90;;;;;;5030567;28;20034;-73
2022/11/18 03:59:44;;;;;;;44.22;20.95;;;2.00;99.90;;;;;;5037800;28;20030;-73
2022/11/18 04:02:12;;;;;;;46.33;23.52;;;1.90;99.90;;;;;;5039433;28;20025;-73
2022/11/18 04:04:38;;;;;;;43.92;21.45;;;1.90;99.90;;;;;;5035797;28;20037;-74
2022/11/18 04:07:16;;;;;;;46.05;23.00;;;1.90;99.90;;;;;;5039292;28;20068;-73
2022/11/18 04:09:48;;;;;;;44.47;21.20;;;1.90;99.90;;;;;;5022229;28;20032;-73
2022/11/18 04:12:17;;;;;;;38.78;20.17;;;2.00;99.90;;;;;;5021976;28;20025;-75
2022/11/18 04:14:48;;;;;;;43.38;21.17;;;1.90;99.90;;;;;;5020268;28;20018;-73
2022/11/18 04:17:21;;;;;;;40.92;20.98;;;1.90;99.90;;;;;;5019350;28;20044;-73
2022/11/18 04:19:47;;;;;;;42.72;21.60;;;1.80;99.90;;;;;;5034823;28;20044;-74
2022/11/18 04:22:13;;;;;;;41.08;19.60;;;1.80;99.90;;;;;;5048765;28;20476;-73
2022/11/18 04:24:39;;;;;;;39.63;20.05;;;1.80;99.90;;;;;;5036245;28;20033;-74
2022/11/18 04:27:05;;;;;;;42.30;20.38;;;1.80;99.90;;;;;;5039253;28;20017;-74
2022/11/18 04:29:32;;;;;;;40.05;20.63;;;1.80;99.90;;;;;;5031361;28;20111;-74
2022/11/18 04:31:59;;;;;;;43.17;20.25;;;1.80;99.90;;;;;;5014677;28;20037;-73
2022/11/18 04:34:25;;;;;;;37.05;19.90;;;1.80;99.90;;;;;;5032157;28;20424;-73
2022/11/18 04:36:52;;;;;;;37.55;19.75;;;1.80;99.90;;;;;;5017156;28;20025;-73
2022/11/18 04:39:18;;;;;;;42.55;21.10;;;1.70;99.90;;;;;;5002887;28;20801;-73
2022/11/18 04:41:56;;;;;;;39.28;20.05;;;1.70;99.90;;;;;;5050218;28;20049;-73
2022/11/18 04:44:30;;;;;;;42.42;21.42;;;1.70;99.90;;;;;;5053912;28;20068;-73
2022/11/18 04:46:57;;;;;;;40.47;21.02;;;1.70;99.90;;;;;;5018637;28;20029;-73
2022/11/18 04:49:24;;;;;;;40.83;21.23;;;1.70;99.90;;;;;;5050354;28;20052;-75
2022/11/18 04:51:51;;;;;;;42.00;21.30;;;1.70;99.90;;;;;;5022797;28;20116;-74
2022/11/18 04:54:17;;;;;;;44.50;20.88;;;1.70;99.90;;;;;;5052320;28;20037;-73
2022/11/18 04:56:45;;;;;;;42.05;21.27;;;1.70;99.90;;;;;;5013715;28;20019;-73
2022/11/18 04:59:13;;;;;;;42.78;20.58;;;1.70;99.90;;;;;;5061612;28;20091;-73
2022/11/18 05:01:40;;;;;;;40.72;21.05;;;1.70;99.90;;;;;;5034800;28;20029;-74
2022/11/18 05:04:07;;;;;;;44.20;22.05;;;1.70;99.90;;;;;;5035350;28;20037;-73
2022/11/18 05:06:33;;;;;;;41.10;21.23;;;1.70;99.90;;;;;;5034503;28;20027;-74
2022/11/18 05:09:00;;;;;;;42.15;21.88;;;1.70;99.90;;;;;;5037567;28;20025;-74
2022/11/18 05:14:12;;;;;;;36.47;19.70;;;1.70;99.90;;;;;;5036778;28;20021;-74
2022/11/18 05:16:38;;;;;;;41.47;22.10;;;1.80;99.90;;;;;;5004771;28;20029;-73
2022/11/18 05:19:05;;;;;;;42.88;21.95;;;1.70;99.90;;;;;;5037980;28;20485;-74
2022/11/18 05:21:31;;;;;;;46.80;23.60;;;1.70;99.90;;;;;;5047026;28;20095;-73
2022/11/18 05:24:00;;;;;;;49.28;22.40;;;1.70;99.90;;;;;;5034253;28;20041;-73
2022/11/18 05:26:26;;;;;;;45.10;23.02;;;1.70;99.90;;;;;;5037092;28;20115;-73
2022/11/18 05:28:52;;;;;;;49.63;25.40;;;1.70;99.90;;;;;;5018817;28;20061;-74
2022/11/18 05:31:18;;;;;;;47.08;23.55;;;1.70;99.90;;;;;;5030314;28;20285;-73
2022/11/18 05:33:44;;;;;;;48.08;24.00;;;1.70;99.90;;;;;;5032255;28;20072;-74
2022/11/18 05:36:13;;;;;;;49.85;24.52;;;1.70;99.90;;;;;;5017189;28;20036;-73
2022/11/18 05:38:40;;;;;;;44.75;22.30;;;1.70;99.90;;;;;;5041546;28;20083;-74
2022/11/18 05:41:07;;;;;;;46.17;22.58;;;1.70;99.90;;;;;;5036972;28;20090;-73
2022/11/18 05:43:34;;;;;;;43.97;22.63;;;1.60;99.90;;;;;;5018757;28;20029;-73
2022/11/18 05:46:03;;;;;;;46.30;23.92;;;1.60;99.90;;;;;;4999845;28;20037;-73
2022/11/18 05:48:30;;;;;;;46.85;23.92;;;1.60;99.90;;;;;;5030860;28;20029;-73
2022/11/18 05:50:56;;;;;;;45.95;23.80;;;1.60;99.90;;;;;;5033719;28;20022;-75
2022/11/18 05:53:24;;;;;;;46.92;23.77;;;1.60;99.90;;;;;;5036439;28;20082;-75
2022/11/18 05:55:59;;;;;;;48.15;24.33;;;1.60;99.90;;;;;;5033904;28;20025;-75
2022/11/18 05:58:25;;;;;;;45.45;22.80;;;1.60;99.90;;;;;;5035775;28;20032;-75
2022/11/18 06:00:54;;;;;;;43.15;22.40;;;1.60;99.90;;;;;;5033486;28;20037;-75
2022/11/18 06:03:25;;;;;;;45.92;23.23;;;1.60;99.90;;;;;;5009849;28;20574;-73
2022/11/18 06:05:54;;;;;;;46.05;24.27;;;1.60;99.90;;;;;;5009968;28;20765;-74
2022/11/18 06:08:21;;;;;;;46.63;23.85;;;1.60;99.90;;;;;;5038728;28;20030;-74
2022/11/18 06:10:49;;;;;;;47.78;24.17;;;1.50;99.90;;;;;;5001887;28;20025;-74
2022/11/18 06:13:25;;;;;;;49.40;23.70;;;1.60;99.90;;;;;;5046167;28;20025;-75
2022/11/18 06:15:51;;;;;;;48.00;23.88;;;1.60;99.90;;;;;;4997723;28;20041;-75
2022/11/18 06:18:27;;;;;;;49.22;24.35;;;1.60;99.90;;;;;;5019225;28;20037;-75
2022/11/18 06:20:56;;;;;;;48.38;24.05;;;1.60;99.90;;;;;;5015063;28;20864;-74
2022/11/18 06:23:22;;;;;;;43.80;22.63;;;1.50;99.90;;;;;;5033646;28;20040;-73
2022/11/18 06:25:48;;;;;;;51.38;23.60;;;1.50;99.90;;;;;;5002891;28;20083;-74
2022/11/18 06:28:15;;;;;;;48.25;23.58;;;1.50;99.90;;;;;;5049896;28;20032;-73
2022/11/18 06:30:41;;;;;;;48.65;23.15;;;1.50;99.90;;;;;;4993220;28;20064;-73
2022/11/18 06:33:07;;;;;;;46.88;22.98;;;1.40;99.90;;;;;;5029452;28;20074;-74
2022/11/18 06:35:34;;;;;;;48.25;24.13;;;1.40;99.90;;;;;;4992945;28;20548;-73
2022/11/18 06:38:02;;;;;;;53.95;25.67;;;1.40;99.90;;;;;;5016652;28;20026;-73
2022/11/18 06:40:28;;;;;;;52.47;24.38;;;1.40;99.90;;;;;;5020112;28;20174;-74
2022/11/18 06:45:38;;;;;;;45.17;23.55;;;1.40;99.90;;;;;;5033159;28;20029;-74
2022/11/18 06:48:04;;;;;;;47.13;22.90;;;1.40;99.90;;;;;;5020468;28;20028;-75
2022/11/18 06:50:30;;;;;;;50.10;24.65;;;1.40;99.90;;;;;;5024539;28;20042;-75
2022/11/18 06:52:59;;;;;;;53.60;25.95;;;1.40;99.90;;;;;;5034657;28;20022;-74
2022/11/18 06:55:24;;;;;;;52.78;24.95;;;1.70;99.90;;;;;;5017287;28;20099;-74
2022/11/18 06:57:50;;;;;;;48.17;23.75;;;1.40;99.90;;;;;;5042613;28;20033;-74
2022/11/18 07:00:16;;;;;;;47.70;23.35;;;1.40;99.90;;;;;;5014698;28;20119;-74
2022/11/18 07:02:45;;;;;;;48.30;23.35;;;1.40;99.90;;;;;;5032647;28;20067;-74
2022/11/18 07:05:11;;;;;;;53.45;24.90;;;1.40;99.90;;;;;;5031935;28;20061;-74
2022/11/18 07:07:37;;;;;;;52.55;24.65;;;1.40;99.90;;;;;;5027276;28;20413;-76
2022/11/18 07:10:05;;;;;;;48.38;22.25;;;1.40;99.90;;;;;;5007384;28;20040;-74
2022/11/18 07:12:30;;;;;;;48.90;23.65;;;1.40;99.90;;;;;;5038880;28;20029;-74
2022/11/18 07:14:56;;;;;;;47.38;23.20;;;1.30;99.90;;;;;;5041504;28;20102;-75
2022/11/18 07:17:22;;;;;;;50.03;24.02;;;1.40;99.90;;;;;;5029076;28;20580;-74
2022/11/18 07:19:48;;;;;;;49.90;24.10;;;1.40;99.90;;;;;;5036990;28;20149;-75
2022/11/18 07:22:13;;;;;;;48.63;22.67;;;1.40;99.90;;;;;;5042047;28;20021;-74
2022/11/18 07:24:39;;;;;;;47.47;24.10;;;1.30;99.90;;;;;;5033307;28;20378;-75
2022/11/18 07:27:05;;;;;;;49.72;23.88;;;1.30;99.90;;;;;;5034366;28;20026;-74
2022/11/18 07:29:31;;;;;;;49.83;23.33;;;1.30;99.90;;;;;;5039832;28;20021;-75
2022/11/18 07:31:56;;;;;;;47.58;23.92;;;1.30;99.90;;;;;;5023078;28;20026;-75
2022/11/18 07:34:22;;;;;;;41.80;20.23;;;1.40;99.90;;;;;;5030796;28;20030;-74
2022/11/18 07:36:48;;;;;;;60.65;26.10;;;1.40;99.90;;;;;;5033395;28;20119;-74
2022/11/18 07:39:14;;;;;;;48.35;22.75;;;1.50;99.90;;;;;;5053322;28;20068;-74
2022/11/18 07:41:40;;;;;;;47.30;22.52;;;1.40;99.90;;;;;;5009365;28;20717;-74
2022/11/18 07:44:06;;;;;;;42.55;23.38;;;1.30;99.90;;;;;;5019487;28;20123;-74
2022/11/18 07:46:34;;;;;;;48.92;22.95;;;1.30;99.90;;;;;;5028840;28;20029;-74
2022/11/18 07:49:03;;;;;;;49.60;23.13;;;1.30;99.90;;;;;;5017076;28;20037;-74
2022/11/18 07:51:33;;;;;;;43.63;21.33;;;1.30;99.90;;;;;;5006864;28;20025;-74
2022/11/18 07:53:59;;;;;;;40.00;20.20;;;1.30;99.90;;;;;;4999805;28;20036;-73
2022/11/18 07:56:25;;;;;;;41.20;20.83;;;1.30;99.90;;;;;;4996924;28;20029;-75
2022/11/18 07:58:55;;;;;;;39.75;20.38;;;1.20;99.90;;;;;;5006377;28;20032;-75
2022/11/18 08:01:27;;;;;;;42.10;21.98;;;1.20;99.90;;;;;;5002047;28;20416;-74
2022/11/18 08:03:54;;;;;;;38.10;19.65;;;1.30;99.90;;;;;;5012931;28;20514;-76
2022/11/18 08:06:19;;;;;;;44.30;21.20;;;1.30;99.90;;;;;;5016221;28;20036;-75
2022/11/18 08:08:46;;;;;;;39.13;20.17;;;1.30;99.90;;;;;;5050551;28;20038;-75
2022/11/18 08:11:17;;;;;;;37.08;17.83;;;1.20;99.90;;;;;;5002921;28;20017;-75
2022/11/18 08:13:43;;;;;;;;;;;1.20;99.90;;;;;;5055608;28;20104;-74
2022/11/18 08:16:14;;;;;;;35.03;17.70;;;1.20;99.90;;;;;;5053186;28;20011;-74
2022/11/18 08:18:39;;;;;;;;;;;1.20;99.90;;;;;;5041449;28;20022;-75
2022/11/18 08:21:05;;;;;;;37.40;18.42;;;1.20;99.90;;;;;;5012019;28;19917;-74
2022/11/18 08:23:31;;;;;;;37.17;17.75;;;1.30;99.90;;;;;;5016340;28;20076;-75
2022/11/18 08:26:14;;;;;;;36.38;18.02;;;1.30;99.90;;;;;;5036533;28;20493;-74
2022/11/18 08:28:41;;;;;;;34.63;17.08;;;1.30;99.90;;;;;;5018123;28;20033;-74
2022/11/18 08:31:20;;;;;;;33.67;18.13;;;1.20;99.90;;;;;;5019069;28;20021;-74
2022/11/18 08:33:46;;;;;;;35.08;18.75;;;1.20;99.90;;;;;;5021872;28;20021;-74
2022/11/18 08:36:15;;;;;;;32.92;16.50;;;1.30;99.90;;;;;;5035604;28;20021;-73
2022/11/18 08:38:41;;;;;;;31.73;17.20;;;1.30;99.90;;;;;;5032542;28;20390;-74
2022/11/18 08:41:09;;;;;;;31.23;16.98;;;1.20;99.90;;;;;;5004484;28;20034;-74
2022/11/18 08:43:35;;;;;;;34.55;17.58;;;1.20;99.90;;;;;;5039855;28;20029;-74
2022/11/18 08:46:01;;;;;;;34.97;18.30;;;1.20;99.90;;;;;;5022609;28;20021;-74
2022/11/18 08:48:27;;;;;;;31.35;17.05;;;1.30;99.90;;;;;;5036309;28;20033;-74
2022/11/18 08:50:53;;;;;;;32.90;16.80;;;1.20;99.90;;;;;;5054062;28;20248;-74
2022/11/18 08:53:19;;;;;;;33.53;18.25;;;1.30;99.90;;;;;;5037548;28;20082;-74
2022/11/18 08:55:45;;;;;;;32.00;16.70;;;1.30;99.90;;;;;;5047443;28;20489;-73
2022/11/18 08:58:11;;;;;;;35.75;18.17;;;1.40;99.90;;;;;;5018477;28;20025;-73
2022/11/18 09:00:37;;;;;;;33.10;17.33;;;1.40;99.90;;;;;;5053110;28;20030;-73
2022/11/18 09:03:03;;;;;;;29.05;16.25;;;1.40;99.90;;;;;;5040014;28;20179;-73
2022/11/18 09:05:29;;;;;;;32.92;17.40;;;1.30;99.90;;;;;;5020690;28;20119;-73
2022/11/18 09:07:54;;;;;;;31.38;18.75;;;1.40;99.90;;;;;;5038178;28;20511;-74
2022/11/18 09:10:20;;;;;;;33.47;18.23;;;1.40;99.90;;;;;;5036985;28;20496;-75
2022/11/18 09:12:46;;;;;;;30.52;16.48;;;1.40;99.90;;;;;;5021549;28;20096;-74
2022/11/18 09:15:11;;;;;;;28.58;16.70;;;1.40;99.90;;;;;;5022756;28;20044;-74
2022/11/18 09:17:37;;;;;;;30.67;16.75;;;1.40;99.90;;;;;;5049421;28;20068;-74
2022/11/18 09:20:03;;;;;;;30.05;15.82;;;1.40;99.90;;;;;;5055978;28;20044;-73
2022/11/18 09:22:29;;;;;;;31.95;16.90;;;1.40;99.90;;;;;;5011925;28;20116;-74
2022/11/18 09:24:55;;;;;;;31.88;15.88;;;1.40;99.90;;;;;;5037321;28;20620;-73
2022/11/18 09:27:22;;;;;;;31.70;16.65;;;1.30;99.90;;;;;;5016562;28;20028;-73
2022/11/18 09:29:48;;;;;;;27.08;15.93;;;1.40;99.90;;;;;;5018055;28;20029;-73
2022/11/18 09:32:13;;;;;;;27.05;15.13;;;1.40;99.90;;;;;;5049068;28;20026;-73
2022/11/18 09:34:39;;;;;;;26.75;15.07;;;1.40;99.90;;;;;;5017038;28;20025;-73
2022/11/18 09:37:05;;;;;;;27.75;15.05;;;1.50;99.90;;;;;;5038104;28;20022;-73
2022/11/18 09:39:34;;;;;;;25.42;14.73;;;1.50;99.90;;;;;;5038184;28;20096;-74
2022/11/18 09:42:11;;;;;;;24.98;14.32;;;1.60;99.90;;;;;;5020264;28;20033;-73
2022/11/18 09:45:04;;;;;;;26.92;14.35;;;1.60;99.90;;;;;;5038094;28;20813;-73
2022/11/18 09:47:34;;;;;;;25.92;14.18;;;1.70;99.90;;;;;;5051237;28;20108;-74
2022/11/18 09:50:04;;;;;;;24.95;14.57;;;1.70;99.90;;;;;;5031422;28;20381;-73
2022/11/18 09:52:32;;;;;;;23.45;12.80;;;1.70;99.90;;;;;;5019462;28;20034;-74
2022/11/18 09:54:58;;;;;;;24.38;13.48;;;1.70;99.90;;;;;;5022261;28;20032;-73
2022/11/18 09:57:39;;;;;;;23.52;13.25;;;1.80;99.90;;;;;;5037437;28;20373;-73
2022/11/18 10:00:26;;;;;;;24.20;14.05;;;1.70;99.90;;;;;;5017068;28;20033;-73
2022/11/18 10:03:03;;;;;;;21.35;12.43;;;1.80;99.90;;;;;;5034516;28;20385;-73
2022/11/18 10:05:39;;;;;;;24.52;12.63;;;1.90;99.90;;;;;;5012341;28;20579;-73
2022/11/18 10:08:26;;;;;;;23.05;13.63;;;1.90;99.90;;;;;;5019040;28;20515;-73
2022/11/18 10:11:09;;;;;;;23.65;12.55;;;1.90;99.90;;;;;;5030305;28;20032;-73
2022/11/18 10:13:44;;;;;;;20.15;12.00;;;1.80;99.90;;;;;;5029623;28;20025;-73
2022/11/18 10:16:28;;;;;;;23.23;11.88;;;1.80;99.90;;;;;;5032716;28;20044;-73
2022/11/18 10:19:07;;;;;;;20.05;11.45;;;1.80;99.90;;;;;;5017766;28;20041;-73
2022/11/18 10:22:05;;;;;;;21.30;12.10;;;1.90;99.90;;;;;;5034697;28;20069;-72
2022/11/18 10:24:42;;;;;;;21.38;12.13;;;1.90;99.90;;;;;;5010138;28;20045;-73
2022/11/18 10:27:13;;;;;;;16.40;10.00;;;2.00;99.90;;;;;;5033026;28;20029;-72
2022/11/18 10:29:41;;;;;;;20.65;11.20;;;2.00;99.90;;;;;;5015733;28;20025;-73
2022/11/18 10:32:19;;;;;;;22.23;11.48;;;2.00;99.90;;;;;;5015646;28;20524;-74
2022/11/18 10:34:58;;;;;;;17.40;10.30;;;2.10;99.90;;;;;;5002725;28;20497;-74
2022/11/18 10:37:36;;;;;;;15.90;9.90;;;2.10;99.90;;;;;;5019230;28;20083;-73
2022/11/18 10:40:04;;;;;;;19.33;9.75;;;2.10;99.90;;;;;;5020026;28;20024;-73
2022/11/18 10:42:45;;;;;;;16.33;9.68;;;2.20;99.90;;;;;;5034902;28;20025;-73
2022/11/18 10:45:23;;;;;;;16.27;9.35;;;2.20;99.90;;;;;;5001335;28;20013;-75
2022/11/18 10:47:56;;;;;;;15.60;9.65;;;2.20;99.90;;;;;;5020123;28;20109;-73
2022/11/18 10:50:43;;;;;;;15.02;8.93;;;2.20;99.90;;;;;;5051371;28;20021;-73
2022/11/18 10:53:27;;;;;;;16.67;9.25;;;2.30;99.90;;;;;;5036635;28;20025;-73
2022/11/18 10:56:07;;;;;;;13.82;8.95;;;2.30;99.90;;;;;;5038914;28;20029;-73
2022/11/18 10:58:36;;;;;;;15.45;9.23;;;2.30;99.90;;;;;;5014275;28;20040;-75
2022/11/18 11:01:12;;;;;;;14.00;8.93;;;2.40;99.90;;;;;;5045693;28;20036;-74
2022/11/18 11:03:40;;;;;;;15.85;8.35;;;2.40;99.90;;;;;;5001223;28;20034;-73
2022/11/18 11:06:25;;;;;;;12.75;8.52;;;2.70;99.90;;;;;;4996461;28;20033;-72
2022/11/18 11:09:00;;;;;;;10.77;7.07;;;2.50;99.90;;;;;;5034572;28;20099;-73
2022/11/18 11:11:39;;;;;;;14.88;7.28;;;2.40;99.90;;;;;;5036355;28;20029;-73
2022/11/18 11:14:30;;;;;;;16.05;6.82;;;2.40;99.90;;;;;;5008166;28;20086;-72
2022/11/18 11:16:56;;;;;;;;;;;2.30;99.90;;;;;;5015761;28;20111;-74
2022/11/18 11:19:26;;;;;;;12.43;7.65;;;2.30;99.90;;;;;;5051015;28;20015;-73
2022/11/18 11:21:52;;;;;;;13.18;7.63;;;2.30;99.90;;;;;;5036750;28;20091;-73
2022/11/18 11:24:19;;;;;;;14.55;7.90;;;2.30;99.90;;;;;;5015378;28;20061;-73
2022/11/18 11:27:12;;;;;;;12.77;7.22;;;2.40;99.90;;;;;;5035833;28;20281;-73
2022/11/18 11:30:15;;;;;;;13.38;6.90;;;2.40;99.90;;;;;;5055145;28;20025;-72
2022/11/18 11:32:53;;;;;;;12.73;7.28;;;2.30;99.90;;;;;;5050530;28;20294;-74
2022/11/18 11:35:24;;;;;;;12.75;7.60;;;2.30;99.90;;;;;;5032527;28;20053;-73
2022/11/18 11:37:54;;;;;;;;;;;2.20;99.90;;;;;;5000368;28;20467;-74
2022/11/18 11:40:44;;;;;;;14.35;6.72;;;2.20;99.90;;;;;;5032242;28;20000;-74
2022/11/18 11:43:28;;;;;;;15.45;8.27;;;2.20;99.90;;;;;;5049145;28;20744;-74
2022/11/18 11:46:23;;;;;;;11.35;6.38;;;2.20;99.90;;;;;;5038808;28;20033;-74
2022/11/18 11:49:16;;;;;;;17.02;8.52;;;2.20;99.90;;;;;;5033206;28;20757;-74
2022/11/18 11:51:41;;;;;;;11.88;6.95;;;2.20;99.90;;;;;;5039410;28;20025;-74
2022/11/18 11:54:36;;;;;;;12.25;6.80;;;2.20;99.90;;;;;;5058593;28;20550;-74
2022/11/18 11:57:09;;;;;;;13.05;6.55;;;2.20;99.90;;;;;;5019048;28;20025;-73
2022/11/18 11:59:57;;;;;;;14.93;6.97;;;2.30;99.90;;;;;;5040678;28;20057;-73
2022/11/18 12:02:38;;;;;;;14.15;7.10;;;2.30;99.90;;;;;;5051061;28;20029;-74
2022/11/18 12:05:38;;;;;;;14.90;7.47;;;2.30;99.90;;;;;;5035165;28;20038;-73
2022/11/18 12:08:13;;;;;;;15.38;7.75;;;2.20;99.90;;;;;;5039542;28;20075;-74
2022/11/18 12:10:48;;;;;;;15.43;7.60;;;2.20;99.90;;;;;;5037327;28;20380;-74
2022/11/18 12:13:45;;;;;;;13.95;7.63;;;2.30;99.90;;;;;;5030766;28;20535;-73
2022/11/18 12:16:26;;;;;;;14.23;7.53;;;2.30;99.90;;;;;;5028132;28;20075;-72
2022/11/18 12:18:58;;;;;;;15.48;7.95;;;2.30;99.90;;;;;;5036465;28;20104;-74
2022/11/18 12:21:45;;;;;;;15.38;7.88;;;2.30;99.90;;;;;;5037465;28;20044;-74
2022/11/18 12:24:17;;;;;;;14.57;7.15;;;2.30;99.90;;;;;;5018539;28;20112;-74
2022/11/18 12:26:45;;;;;;;14.02;7.47;;;2.30;99.90;;;;;;5049786;28;20029;-74
2022/11/18 12:29:20;;;;;;;15.05;7.47;;;2.40;99.90;;;;;;4991504;28;20504;-72
2022/11/18 12:31:53;;;;;;;14.13;7.93;;;2.30;99.90;;;;;;5043737;28;20026;-73
2022/11/18 12:34:24;;;;;;;15.00;7.50;;;2.40;99.90;;;;;;5031458;28;20374;-73
2022/11/18 12:36:51;;;;;;;14.27;7.00;;;2.40;99.90;;;;;;5037540;28;20514;-73
2022/11/18 12:39:23;;;;;;;14.70;7.47;;;2.40;99.90;;;;;;5015960;28;20041;-73
2022/11/18 12:44:47;;;;;;;15.55;7.43;;;2.50;99.90;;;;;;5027345;28;20539;-72
2022/11/18 12:47:15;;;;;;;14.35;7.65;;;2.50;99.90;;;;;;5018655;28;20037;-72
2022/11/18 12:49:44;;;;;;;12.82;7.13;;;2.50;99.90;;;;;;5020942;28;20032;-73
2022/11/18 12:52:36;;;;;;;13.43;6.97;;;2.80;99.90;;;;;;5052193;28;20028;-74
2022/11/18 12:55:25;;;;;;;12.65;6.95;;;2.60;99.90;;;;;;5003207;28;20043;-73
2022/11/18 12:57:51;;;;;;;14.70;6.82;;;2.60;99.90;;;;;;5017615;28;20445;-73
2022/11/18 13:00:27;;;;;;;31.27;15.32;;;2.60;99.90;;;;;;5012230;28;20059;-74
2022/11/18 13:02:57;;;;;;;22.63;13.15;;;2.60;99.90;;;;;;5052318;28;20033;-73
2022/11/18 13:05:24;;;;;;;14.68;6.65;;;2.60;99.90;;;;;;5020169;28;20493;-73
2022/11/18 13:08:12;;;;;;;12.75;5.97;;;2.50;99.90;;;;;;5020718;28;20064;-73
2022/11/18 13:11:43;;;;;;;12.43;6.15;;;2.50;99.90;;;;;;5011616;28;20121;-72
2022/11/18 13:13:46;;;;;;;13.65;7.65;;;2.50;99.90;;;;;;5011327;28;20132;-74